Time;durP1;ratioP1;P1;durP2;ratioP2;P2;SDS_P1;SDS_P2;PMS_P1;PMS_P2;Temp;Humidity;BMP_temperature;BMP_pressure;BME280_temperature;BME280_humidity;BME280_pressure;Samples;Min_cycle;Max_cycle;Signal;HPM_P1;HPM_P2
2021/12/31 00:00:10;;;;;;;;;;;22.50;48.10;;;;;;5116760;28;19930;-51
2021/12/31 00:02:37;;;;;;;;;;;22.50;48.10;;;;;;5115809;27;20366;-52
2021/12/31 00:05:05;;;;;;;;;;;22.50;48.10;;;;;;5116918;28;19924;-54
2021/12/31 00:07:33;;;;;;;;;;;22.50;48.10;;;;;;5098678;28;19931;-56
2021/12/31 00:10:01;;;;;;;;;;;22.50;48.10;;;;;;5116551;28;19924;-55
2021/12/31 00:12:28;;;;;;;;;;;22.50;48.00;;;;;;5116842;28;19923;-52
2021/12/31 00:14:56;;;;;;;;;;;22.50;48.10;;;;;;5116815;28;20323;-54
2021/12/31 00:17:24;;;;;;;;;;;22.50;48.10;;;;;;5116780;28;20290;-57
2021/12/31 00:20:00;;;;;;;;;;;22.50;48.10;;;;;;5114966;28;19924;-50
2021/12/31 00:24:54;;;;;;;;;;;22.50;48.10;;;;;;5116277;28;19923;-48
2021/12/31 00:27:21;;;;;;;;;;;22.50;48.10;;;;;;5116260;28;19969;-51
2021/12/31 00:29:49;;;;;;;;;;;22.50;48.10;;;;;;5116169;28;19923;-56
2021/12/31 00:32:16;;;;;;;;;;;22.50;48.10;;;;;;5116448;28;19927;-58
2021/12/31 00:34:43;;;;;;;;;;;22.50;48.10;;;;;;5115233;28;19923;-47
2021/12/31 00:37:10;;;;;;;;;;;22.50;48.20;;;;;;5116024;28;19946;-55
2021/12/31 00:39:37;;;;;;;;;;;22.50;48.20;;;;;;5116869;28;19931;-52
2021/12/31 00:42:05;;;;;;;;;;;22.50;48.10;;;;;;5116274;28;19991;-58
2021/12/31 00:44:32;;;;;;;;;;;22.50;48.10;;;;;;5115825;28;19930;-55
2021/12/31 00:46:59;;;;;;;;;;;22.40;48.00;;;;;;5115846;28;19928;-49
2021/12/31 00:49:26;;;;;;;;;;;22.50;48.20;;;;;;5114433;28;19931;-55
2021/12/31 00:51:53;;;;;;;;;;;22.50;48.20;;;;;;5115575;28;19924;-49
2021/12/31 00:54:20;;;;;;;;;;;22.40;48.10;;;;;;5116001;28;19930;-53
2021/12/31 00:56:47;;;;;;;;;;;22.40;48.10;;;;;;5115641;28;19924;-55
2021/12/31 00:59:14;;;;;;;;;;;22.40;48.10;;;;;;5115960;28;20014;-58
2021/12/31 01:01:41;;;;;;;;;;;22.40;48.10;;;;;;5116448;28;19924;-57
2021/12/31 01:04:09;;;;;;;;;;;22.40;48.10;;;;;;5114433;27;20325;-54
2021/12/31 01:06:36;;;;;;;;;;;22.40;48.10;;;;;;5115503;28;19924;-58
2021/12/31 01:09:03;;;;;;;;;;;22.40;48.10;;;;;;5115733;28;19924;-56
2021/12/31 01:11:31;;;;;;;;;;;22.40;48.10;;;;;;5115681;28;19946;-55
2021/12/31 01:14:03;;;;;;;;;;;22.40;48.10;;;;;;5115344;28;19924;-55
2021/12/31 01:16:39;;;;;;;;;;;22.40;48.10;;;;;;5115307;28;20015;-54
2021/12/31 01:21:34;;;;;;;;;;;22.40;48.10;;;;;;5115067;28;19924;-51
2021/12/31 01:24:02;;;;;;;;;;;22.40;48.10;;;;;;5114841;28;19924;-58
2021/12/31 01:26:30;;;;;;;;;;;22.40;48.10;;;;;;5115072;28;19930;-54
2021/12/31 01:28:58;;;;;;;;;;;22.40;48.10;;;;;;5115038;28;19923;-56
2021/12/31 01:31:25;;;;;;;;;;;22.40;48.10;;;;;;5114983;28;19924;-57
2021/12/31 01:33:52;;;;;;;;;;;22.40;48.10;;;;;;5113741;28;19924;-57
2021/12/31 01:36:19;;;;;;;;;;;22.40;48.20;;;;;;5114893;28;19928;-53
2021/12/31 01:38:47;;;;;;;;;;;22.40;48.10;;;;;;5114840;28;19927;-57
2021/12/31 01:41:14;;;;;;;;;;;22.40;48.20;;;;;;5115146;28;19923;-58
2021/12/31 01:43:41;;;;;;;;;;;22.40;48.20;;;;;;5115029;28;19956;-55
2021/12/31 01:46:12;;;;;;;;;;;22.40;48.20;;;;;;5115068;28;20352;-56
2021/12/31 01:49:02;;;;;;;;;;;22.40;48.20;;;;;;5112994;28;19924;-55
2021/12/31 01:51:29;;;;;;;;;;;22.40;48.20;;;;;;5114605;28;20018;-55
2021/12/31 01:53:56;;;;;;;;;;;22.40;48.20;;;;;;5114413;28;19927;-53
2021/12/31 01:56:25;;;;;;;;;;;22.40;48.20;;;;;;5114884;28;19947;-56
2021/12/31 01:58:55;;;;;;;;;;;22.40;48.20;;;;;;5114528;28;19931;-55
2021/12/31 02:01:22;;;;;;;;;;;22.40;48.20;;;;;;5114542;28;19931;-58
2021/12/31 02:03:53;;;;;;;;;;;22.40;48.20;;;;;;5113179;28;19923;-57
2021/12/31 02:06:20;;;;;;;;;;;22.40;48.20;;;;;;5114415;28;19924;-54
2021/12/31 02:08:47;;;;;;;;;;;22.40;48.20;;;;;;5114368;28;19930;-54
2021/12/31 02:11:20;;;;;;;;;;;22.40;48.20;;;;;;5114653;28;19923;-59
2021/12/31 02:13:47;;;;;;;;;;;22.40;48.20;;;;;;5114318;28;19924;-54
2021/12/31 02:16:14;;;;;;;;;;;22.40;48.20;;;;;;5114595;28;20294;-54
2021/12/31 02:18:43;;;;;;;;;;;22.40;48.20;;;;;;5114273;28;19924;-49
2021/12/31 02:21:11;;;;;;;;;;;22.40;48.20;;;;;;5112790;28;20368;-56
2021/12/31 02:23:47;;;;;;;;;;;22.40;48.20;;;;;;5113880;28;19927;-59
2021/12/31 02:26:15;;;;;;;;;;;22.40;48.20;;;;;;5114558;28;19924;-59
2021/12/31 02:28:42;;;;;;;;;;;22.40;48.20;;;;;;5114462;28;19924;-57
2021/12/31 02:31:09;;;;;;;;;;;22.40;48.20;;;;;;5114104;28;19930;-58
2021/12/31 02:33:36;;;;;;;;;;;22.40;48.20;;;;;;5114126;28;19923;-51
2021/12/31 02:36:05;;;;;;;;;;;22.40;48.20;;;;;;5113194;28;19924;-56
2021/12/31 02:38:32;;;;;;;;;;;22.40;48.20;;;;;;5114077;28;19924;-54
2021/12/31 02:40:59;;;;;;;;;;;22.40;48.20;;;;;;5096051;28;19934;-51
2021/12/31 02:43:27;;;;;;;;;;;22.40;48.20;;;;;;5114276;28;20425;-54
2021/12/31 02:45:54;;;;;;;;;;;22.40;48.20;;;;;;5114016;28;19923;-59
2021/12/31 02:48:25;;;;;;;;;;;22.30;48.10;;;;;;5114323;28;19927;-58
2021/12/31 02:50:53;;;;;;;;;;;22.30;48.20;;;;;;5112644;28;19931;-57
2021/12/31 02:53:23;;;;;;;;;;;22.40;48.20;;;;;;5114102;28;19923;-51
2021/12/31 02:55:57;;;;;;;;;;;22.30;48.10;;;;;;5113937;28;19924;-58
2021/12/31 02:58:24;;;;;;;;;;;22.30;48.20;;;;;;5113923;28;19924;-59
2021/12/31 03:00:51;;;;;;;;;;;22.30;48.20;;;;;;5116218;28;20294;-51
2021/12/31 03:03:19;;;;;;;;;;;22.30;48.20;;;;;;5117824;28;20437;-49
2021/12/31 03:05:46;;;;;;;;;;;22.30;48.20;;;;;;5116843;28;19924;-50
2021/12/31 03:08:14;;;;;;;;;;;22.30;48.20;;;;;;5117798;28;19923;-51
2021/12/31 03:10:42;;;;;;;;;;;22.30;48.20;;;;;;5118060;28;19923;-58
2021/12/31 03:13:09;;;;;;;;;;;22.30;48.20;;;;;;5118029;28;19931;-58
2021/12/31 03:15:36;;;;;;;;;;;22.30;48.20;;;;;;5117990;28;19923;-50
2021/12/31 03:18:06;;;;;;;;;;;22.30;48.20;;;;;;5117652;28;19932;-53
2021/12/31 03:20:36;;;;;;;;;;;22.30;48.20;;;;;;5116296;28;19924;-56
2021/12/31 03:23:04;;;;;;;;;;;22.30;48.20;;;;;;5117358;28;20363;-47
2021/12/31 03:25:31;;;;;;;;;;;22.30;48.20;;;;;;5117716;28;20287;-49
2021/12/31 03:27:59;;;;;;;;;;;22.30;48.20;;;;;;5117704;28;19927;-51
2021/12/31 03:30:26;;;;;;;;;;;22.30;48.20;;;;;;5117367;28;19931;-56
2021/12/31 03:32:53;;;;;;;;;;;22.30;48.20;;;;;;5117357;28;19974;-59
2021/12/31 03:35:20;;;;;;;;;;;22.30;48.20;;;;;;5116350;27;19924;-52
2021/12/31 03:37:49;;;;;;;;;;;22.30;48.20;;;;;;5117222;28;19934;-48
2021/12/31 03:40:16;;;;;;;;;;;22.30;48.20;;;;;;5117166;28;19937;-52
2021/12/31 03:42:43;;;;;;;;;;;22.30;48.20;;;;;;5117432;28;19924;-58
2021/12/31 03:45:10;;;;;;;;;;;22.30;48.20;;;;;;5117069;28;19930;-52
2021/12/31 03:47:38;;;;;;;;;;;22.30;48.20;;;;;;5117052;28;19959;-50
2021/12/31 03:50:05;;;;;;;;;;;22.30;48.20;;;;;;5116102;28;19924;-58
2021/12/31 03:52:35;;;;;;;;;;;22.30;48.20;;;;;;5117084;28;19927;-58
2021/12/31 03:55:03;;;;;;;;;;;22.30;48.20;;;;;;5116903;28;19924;-52
2021/12/31 03:57:30;;;;;;;;;;;22.30;48.20;;;;;;5116855;28;20379;-59
2021/12/31 03:59:57;;;;;;;;;;;22.30;48.20;;;;;;5117140;28;19928;-46
2021/12/31 04:02:24;;;;;;;;;;;22.30;48.20;;;;;;5116747;28;19930;-55
2021/12/31 04:04:52;;;;;;;;;;;22.30;48.20;;;;;;5116627;28;19977;-53
2021/12/31 04:07:19;;;;;;;;;;;22.30;48.20;;;;;;5115383;27;19924;-52
2021/12/31 04:09:47;;;;;;;;;;;22.30;48.20;;;;;;5116638;28;19928;-49
2021/12/31 04:12:14;;;;;;;;;;;22.30;48.20;;;;;;5115881;28;20410;-59
2021/12/31 04:14:41;;;;;;;;;;;22.30;48.20;;;;;;5116866;28;20291;-52
2021/12/31 04:17:08;;;;;;;;;;;22.30;48.20;;;;;;5116770;28;19930;-49
2021/12/31 04:19:35;;;;;;;;;;;22.30;48.20;;;;;;5098667;28;19924;-51
2021/12/31 04:22:04;;;;;;;;;;;22.30;48.20;;;;;;5114935;28;19931;-57
2021/12/31 04:24:52;;;;;;;;;;;22.30;48.20;;;;;;5116086;28;19930;-56
2021/12/31 04:27:18;;;;;;;;;;;22.30;48.20;;;;;;5116235;28;19941;-56
2021/12/31 04:29:50;;;;;;;;;;;22.30;48.30;;;;;;5116232;28;19931;-57
2021/12/31 04:32:22;;;;;;;;;;;22.30;48.20;;;;;;5116521;28;19927;-54
2021/12/31 04:34:50;;;;;;;;;;;22.30;48.90;;;;;;5116111;28;19924;-56
2021/12/31 04:37:17;;;;;;;;;;;22.20;48.20;;;;;;5114828;27;19930;-57
2021/12/31 04:39:44;;;;;;;;;;;22.30;48.20;;;;;;5116044;28;19924;-55
2021/12/31 04:42:11;;;;;;;;;;;22.30;48.20;;;;;;5116034;28;19931;-56
2021/12/31 04:44:38;;;;;;;;;;;22.30;48.20;;;;;;5115892;28;19923;-57
2021/12/31 04:47:05;;;;;;;;;;;22.20;48.20;;;;;;5116221;28;19923;-55
2021/12/31 04:49:32;;;;;;;;;;;22.30;48.30;;;;;;5115766;28;20390;-57
2021/12/31 04:51:59;;;;;;;;;;;22.20;48.20;;;;;;5096450;28;19930;-53
2021/12/31 04:54:26;;;;;;;;;;;22.20;48.20;;;;;;5116088;28;19923;-58
2021/12/31 04:56:56;;;;;;;;;;;22.20;48.20;;;;;;5115734;28;19923;-56
2021/12/31 04:59:23;;;;;;;;;;;22.20;48.20;;;;;;5115656;28;19930;-55
2021/12/31 05:01:54;;;;;;;;;;;22.20;48.20;;;;;;5115965;28;19923;-57
2021/12/31 05:04:21;;;;;;;;;;;22.20;48.20;;;;;;5115794;28;19923;-54
2021/12/31 05:06:50;;;;;;;;;;;22.20;48.20;;;;;;5096689;28;19924;-55
2021/12/31 05:09:17;;;;;;;;;;;22.20;48.20;;;;;;5115738;28;19928;-55
2021/12/31 05:11:45;;;;;;;;;;;22.20;48.20;;;;;;5115404;28;19923;-54
2021/12/31 05:14:12;;;;;;;;;;;22.20;48.20;;;;;;5115366;28;19924;-56
2021/12/31 05:16:39;;;;;;;;;;;22.20;48.20;;;;;;5115616;28;19992;-58
2021/12/31 05:19:06;;;;;;;;;;;22.20;48.20;;;;;;5115113;28;19924;-55
2021/12/31 05:21:33;;;;;;;;;;;22.20;48.20;;;;;;5114140;28;19946;-59
2021/12/31 05:24:00;;;;;;;;;;;22.20;48.20;;;;;;5113792;28;19924;-55
2021/12/31 05:26:28;;;;;;;;;;;22.20;48.20;;;;;;5115457;28;19945;-51
2021/12/31 05:28:55;;;;;;;;;;;22.20;48.20;;;;;;5115115;28;19931;-58
2021/12/31 05:31:22;;;;;;;;;;;22.20;48.20;;;;;;5115044;28;19924;-57
2021/12/31 05:33:49;;;;;;;;;;;22.20;48.20;;;;;;5115318;28;19924;-52
2021/12/31 05:36:16;;;;;;;;;;;22.20;48.20;;;;;;5113731;27;20481;-52
2021/12/31 05:38:43;;;;;;;;;;;22.20;48.20;;;;;;5115220;28;20336;-53
2021/12/31 05:41:11;;;;;;;;;;;22.20;48.20;;;;;;5097199;28;19931;-52
2021/12/31 05:43:38;;;;;;;;;;;22.20;48.20;;;;;;5114812;28;20382;-52
2021/12/31 05:46:06;;;;;;;;;;;22.20;48.20;;;;;;5114695;28;19927;-51
2021/12/31 05:48:33;;;;;;;;;;;22.20;48.20;;;;;;5114725;28;19923;-52
2021/12/31 05:51:00;;;;;;;;;;;22.20;48.20;;;;;;5114885;28;19930;-48
2021/12/31 05:53:27;;;;;;;;;;;22.20;48.20;;;;;;5113599;28;20026;-56
2021/12/31 05:55:55;;;;;;;;;;;22.20;48.20;;;;;;5114618;28;19931;-52
2021/12/31 05:58:22;;;;;;;;;;;22.20;48.20;;;;;;5114883;28;19947;-53
2021/12/31 06:00:49;;;;;;;;;;;22.20;48.20;;;;;;5114845;28;19931;-57
2021/12/31 06:03:16;;;;;;;;;;;22.20;48.80;;;;;;5096518;28;19924;-54
2021/12/31 06:05:43;;;;;;;;;;;22.20;48.20;;;;;;5114398;28;19923;-51
2021/12/31 06:08:11;;;;;;;;;;;22.20;48.20;;;;;;5113159;27;19930;-54
2021/12/31 06:10:40;;;;;;;;;;;22.20;48.20;;;;;;5114352;28;19936;-51
2021/12/31 06:13:09;;;;;;;;;;;22.20;48.20;;;;;;5114643;28;19927;-53
2021/12/31 06:15:37;;;;;;;;;;;22.20;48.20;;;;;;5114330;28;19930;-49
2021/12/31 06:18:04;;;;;;;;;;;22.20;48.20;;;;;;5096566;28;19924;-51
2021/12/31 06:20:31;;;;;;;;;;;22.20;48.20;;;;;;5114143;28;20387;-51
2021/12/31 06:22:59;;;;;;;;;;;22.20;48.20;;;;;;5112828;28;19928;-55
2021/12/31 06:25:26;;;;;;;;;;;22.20;48.20;;;;;;5114437;28;19931;-51
2021/12/31 06:27:53;;;;;;;;;;;22.20;48.20;;;;;;5114494;28;19998;-58
2021/12/31 06:30:20;;;;;;;;;;;22.20;48.20;;;;;;5114174;28;19924;-56
2021/12/31 06:32:47;;;;;;;;;;;22.20;48.20;;;;;;5114131;28;19942;-59
2021/12/31 06:35:14;;;;;;;;;;;22.20;48.20;;;;;;5115540;28;19924;-52
2021/12/31 06:37:41;;;;;;;;;;;22.20;48.20;;;;;;5117167;28;19924;-56
2021/12/31 06:40:10;;;;;;;;;;;22.20;48.20;;;;;;5118704;28;20302;-54
2021/12/31 06:42:38;;;;;;;;;;;22.20;48.20;;;;;;5118319;28;20401;-53
2021/12/31 06:45:05;;;;;;;;;;;22.20;48.20;;;;;;5118497;28;19923;-53
2021/12/31 06:47:32;;;;;;;;;;;22.20;48.20;;;;;;5118231;28;20387;-56
2021/12/31 06:49:59;;;;;;;;;;;22.20;48.20;;;;;;5118085;28;19924;-50
2021/12/31 06:52:27;;;;;;;;;;;22.20;48.20;;;;;;5116734;28;20098;-57
2021/12/31 06:54:54;;;;;;;;;;;22.20;48.20;;;;;;5100034;28;19931;-52
2021/12/31 06:57:21;;;;;;;;;;;22.20;48.20;;;;;;5118021;28;19937;-50
2021/12/31 06:59:48;;;;;;;;;;;22.20;48.20;;;;;;5117974;28;19924;-56
2021/12/31 07:02:15;;;;;;;;;;;22.20;48.20;;;;;;5118278;28;20347;-55
2021/12/31 07:04:42;;;;;;;;;;;22.20;48.20;;;;;;5118119;28;19946;-50
2021/12/31 07:07:09;;;;;;;;;;;22.20;48.20;;;;;;5116644;27;19928;-51
2021/12/31 07:09:37;;;;;;;;;;;22.20;48.20;;;;;;5118131;28;19990;-46
2021/12/31 07:12:04;;;;;;;;;;;22.20;48.20;;;;;;5118060;28;20010;-54
2021/12/31 07:14:32;;;;;;;;;;;22.20;48.20;;;;;;5117644;28;19924;-57
2021/12/31 07:16:59;;;;;;;;;;;22.20;48.20;;;;;;5117588;28;19928;-52
2021/12/31 07:19:26;;;;;;;;;;;22.20;48.20;;;;;;5117457;28;20014;-54
2021/12/31 07:21:53;;;;;;;;;;;22.20;48.20;;;;;;5117385;28;19924;-53
2021/12/31 07:24:20;;;;;;;;;;;22.20;48.20;;;;;;5116164;27;20001;-52
2021/12/31 07:26:47;;;;;;;;;;;22.20;48.20;;;;;;5117651;28;19927;-52
2021/12/31 07:29:15;;;;;;;;;;;22.20;48.20;;;;;;5117696;28;19931;-54
2021/12/31 07:31:41;;;;;;;;;;;22.20;48.20;;;;;;5117364;28;19923;-57
2021/12/31 07:34:08;;;;;;;;;;;22.20;48.20;;;;;;5117315;28;19924;-46
2021/12/31 07:36:36;;;;;;;;;;;22.20;48.20;;;;;;5117282;28;19923;-48
2021/12/31 07:39:06;;;;;;;;;;;22.20;48.20;;;;;;5116418;27;19924;-47
2021/12/31 07:41:34;;;;;;;;;;;22.20;48.20;;;;;;5117523;28;19923;-55
2021/12/31 07:44:01;;;;;;;;;;;22.20;48.10;;;;;;5117067;28;19982;-55
2021/12/31 07:46:28;;;;;;;;;;;22.20;48.10;;;;;;5115916;28;19931;-55
2021/12/31 07:48:55;;;;;;;;;;;22.20;48.10;;;;;;5098792;28;20018;-54
2021/12/31 07:51:23;;;;;;;;;;;22.20;48.10;;;;;;5099013;28;19924;-55
2021/12/31 07:53:50;;;;;;;;;;;22.20;48.70;;;;;;5115638;27;19930;-57
2021/12/31 07:56:19;;;;;;;;;;;22.20;48.10;;;;;;5116893;28;19924;-58
2021/12/31 07:58:46;;;;;;;;;;;22.20;48.10;;;;;;5117180;28;19947;-53
2021/12/31 08:01:14;;;;;;;;;;;22.20;48.10;;;;;;5116788;28;19963;-53
2021/12/31 08:03:41;;;;;;;;;;;22.20;48.00;;;;;;5116809;28;20295;-53
2021/12/31 08:06:09;;;;;;;;;;;22.20;48.00;;;;;;5116662;28;19927;-55
2021/12/31 08:08:36;;;;;;;;;;;22.20;48.00;;;;;;5115632;28;19924;-52
2021/12/31 08:11:03;;;;;;;;;;;22.20;48.60;;;;;;5116915;28;19924;-56
2021/12/31 08:13:30;;;;;;;;;;;22.20;48.00;;;;;;5116536;28;19969;-51
2021/12/31 08:15:57;;;;;;;;;;;22.20;48.00;;;;;;5116508;28;19931;-56
2021/12/31 08:18:24;;;;;;;;;;;22.20;47.90;;;;;;5116484;28;19924;-53
2021/12/31 08:20:51;;;;;;;;;;;22.20;47.90;;;;;;5116586;28;19924;-52
2021/12/31 08:23:18;;;;;;;;;;;22.30;48.00;;;;;;5114964;28;19950;-49
2021/12/31 08:25:45;;;;;;;;;;;22.30;48.00;;;;;;5116271;28;19923;-50
2021/12/31 08:28:12;;;;;;;;;;;22.30;48.00;;;;;;5116632;28;19947;-54
2021/12/31 08:30:40;;;;;;;;;;;22.30;48.00;;;;;;5116207;28;19931;-50
2021/12/31 08:33:07;;;;;;;;;;;22.30;47.90;;;;;;5116496;28;19928;-53
2021/12/31 08:35:35;;;;;;;;;;;22.30;47.90;;;;;;5116179;28;19924;-57
2021/12/31 08:38:02;;;;;;;;;;;22.30;47.90;;;;;;5114831;28;19924;-51
2021/12/31 08:40:29;;;;;;;;;;;22.30;47.90;;;;;;5116020;28;19923;-55
2021/12/31 08:42:56;;;;;;;;;;;22.30;47.90;;;;;;5116885;28;19924;-56
2021/12/31 08:45:31;;;;;;;;;;;22.30;47.90;;;;;;5116247;28;19923;-49
2021/12/31 08:47:59;;;;;;;;;;;22.30;47.90;;;;;;5116218;28;19927;-51
2021/12/31 08:50:26;;;;;;;;;;;22.30;47.90;;;;;;5115704;28;19924;-56
2021/12/31 08:52:53;;;;;;;;;;;22.30;47.80;;;;;;5115571;28;19931;-54
2021/12/31 08:55:21;;;;;;;;;;;22.30;47.80;;;;;;5114622;27;19930;-49
2021/12/31 08:57:48;;;;;;;;;;;22.30;47.80;;;;;;5115413;28;19934;-47
2021/12/31 09:00:15;;;;;;;;;;;22.40;47.80;;;;;;5115949;28;19924;-47
2021/12/31 09:02:45;;;;;;;;;;;22.40;47.80;;;;;;5115895;28;19924;-55
2021/12/31 09:05:13;;;;;;;;;;;22.40;47.80;;;;;;5115856;28;19923;-57
2021/12/31 09:07:40;;;;;;;;;;;22.40;47.80;;;;;;5115500;28;19930;-53
2021/12/31 09:10:08;;;;;;;;;;;22.40;47.80;;;;;;5114244;28;20406;-54
2021/12/31 09:12:38;;;;;;;;;;;22.40;47.80;;;;;;5115375;28;19930;-49
2021/12/31 09:15:05;;;;;;;;;;;22.40;47.70;;;;;;5115670;28;19931;-58
2021/12/31 09:17:33;;;;;;;;;;;22.40;47.70;;;;;;5115305;28;19923;-51
2021/12/31 09:20:00;;;;;;;;;;;22.40;47.70;;;;;;5115170;28;19930;-51
2021/12/31 09:22:27;;;;;;;;;;;22.40;47.70;;;;;;5115495;28;19924;-52
2021/12/31 09:24:55;;;;;;;;;;;22.40;47.60;;;;;;5114279;28;20014;-51
2021/12/31 09:27:22;;;;;;;;;;;22.40;47.60;;;;;;5115142;28;20306;-50
2021/12/31 09:29:49;;;;;;;;;;;22.50;47.70;;;;;;5115076;28;19930;-50
2021/12/31 09:32:17;;;;;;;;;;;22.50;47.70;;;;;;5115357;28;19924;-58
2021/12/31 09:34:44;;;;;;;;;;;22.50;47.70;;;;;;5114963;28;20387;-54
2021/12/31 09:37:11;;;;;;;;;;;22.50;47.60;;;;;;5114964;28;19924;-52
2021/12/31 09:39:38;;;;;;;;;;;22.50;47.60;;;;;;5113647;27;19927;-57
2021/12/31 09:42:07;;;;;;;;;;;22.50;47.60;;;;;;5115178;28;19977;-56
2021/12/31 09:44:34;;;;;;;;;;;22.50;47.60;;;;;;5115139;28;19924;-57
2021/12/31 09:47:07;;;;;;;;;;;22.50;47.60;;;;;;5114997;28;19924;-57
2021/12/31 09:49:37;;;;;;;;;;;22.50;47.60;;;;;;5114679;28;20018;-49
2021/12/31 09:52:04;;;;;;;;;;;22.50;47.60;;;;;;5115267;28;19931;-55
2021/12/31 09:54:32;;;;;;;;;;;22.50;47.50;;;;;;5113266;28;19924;-56
2021/12/31 09:57:00;;;;;;;;;;;22.60;47.60;;;;;;5096570;28;19934;-52
2021/12/31 09:59:28;;;;;;;;;;;22.60;47.50;;;;;;5114875;28;19946;-51
2021/12/31 10:01:56;;;;;;;;;;;22.60;47.50;;;;;;5114490;28;19999;-54
2021/12/31 10:04:23;;;;;;;;;;;22.60;47.50;;;;;;5114801;28;20015;-48
2021/12/31 10:07:11;;;;;;;;;;;22.60;47.50;;;;;;5114288;28;20436;-51
2021/12/31 10:09:40;;;;;;;;;;;22.60;47.50;;;;;;5112985;28;19927;-57
2021/12/31 10:12:12;;;;;;;;;;;22.60;47.50;;;;;;5114703;28;19924;-54
2021/12/31 10:14:40;;;;;;;;;;;22.60;47.50;;;;;;5114305;28;19962;-53
2021/12/31 10:17:08;;;;;;;;;;;22.60;47.40;;;;;;5114357;28;19967;-51
2021/12/31 10:19:35;;;;;;;;;;;22.70;47.50;;;;;;5114502;28;19931;-47
2021/12/31 10:22:03;;;;;;;;;;;22.70;47.50;;;;;;5114398;28;19924;-54
2021/12/31 10:24:34;;;;;;;;;;;22.70;47.50;;;;;;5094797;28;20011;-48
2021/12/31 10:27:03;;;;;;;;;;;22.70;47.50;;;;;;5114069;28;19931;-55
2021/12/31 10:29:30;;;;;;;;;;;22.70;47.50;;;;;;5114506;28;20346;-50
2021/12/31 10:31:58;;;;;;;;;;;22.70;47.40;;;;;;5114137;28;19924;-56
2021/12/31 10:34:32;;;;;;;;;;;22.70;47.40;;;;;;5114101;28;19924;-56
2021/12/31 10:37:00;;;;;;;;;;;22.70;47.40;;;;;;5114090;28;19934;-55
2021/12/31 10:39:29;;;;;;;;;;;22.70;47.40;;;;;;5112973;28;19932;-52
2021/12/31 10:42:00;;;;;;;;;;;22.70;47.40;;;;;;5114069;28;19931;-57
2021/12/31 10:45:03;;;;;;;;;;;22.80;47.40;;;;;;5114044;28;19931;-52
2021/12/31 10:47:32;;;;;;;;;;;22.80;47.40;;;;;;5011915;28;19929;-53
2021/12/31 10:50:02;;;;;;;;;;;22.80;47.40;;;;;;5011675;28;19926;-56
2021/12/31 10:52:40;;;;;;;;;;;22.80;47.40;;;;;;5011565;28;19926;-57
2021/12/31 10:55:27;;;;;;;;;;;22.80;47.40;;;;;;5017271;28;19925;-52
2021/12/31 10:57:57;;;;;;;;;;;22.80;47.40;;;;;;5031431;28;19931;-56
2021/12/31 11:00:26;;;;;;;;;;;22.80;47.30;;;;;;5031388;28;19925;-57
2021/12/31 11:02:53;;;;;;;;;;;22.90;47.40;;;;;;5031555;28;19972;-57
2021/12/31 11:05:21;;;;;;;;;;;22.80;47.30;;;;;;5031333;28;19925;-55
2021/12/31 11:07:49;;;;;;;;;;;22.90;47.40;;;;;;5031309;28;19925;-57
2021/12/31 11:10:36;;;;;;;;;;;22.90;47.30;;;;;;5029935;28;20025;-57
2021/12/31 11:13:09;;;;;;;;;;;22.90;47.30;;;;;;5015005;28;19979;-55
2021/12/31 11:15:37;;;;;;;;;;;22.90;47.30;;;;;;5031459;28;20297;-51
2021/12/31 11:18:05;;;;;;;;;;;22.90;47.30;;;;;;5031201;28;19925;-56
2021/12/31 11:20:33;;;;;;;;;;;22.90;47.30;;;;;;5039800;28;19926;-58
2021/12/31 11:23:00;;;;;;;;;;;22.90;47.30;;;;;;5117134;28;19930;-56
2021/12/31 11:25:51;;;;;;;;;;;23.00;47.40;;;;;;5116329;28;19976;-52
2021/12/31 11:28:35;;;;;;;;;;;23.00;47.40;;;;;;5117835;28;19931;-59
2021/12/31 11:31:20;;;;;;;;;;;23.00;47.40;;;;;;5099646;28;19928;-55
2021/12/31 11:33:50;;;;;;;;;;;23.00;47.40;;;;;;5118193;28;19930;-55
2021/12/31 11:36:36;;;;;;;;;;;23.00;47.40;;;;;;5117614;28;19923;-49
2021/12/31 11:39:13;;;;;;;;;;;23.00;47.40;;;;;;5117259;28;20363;-55
2021/12/31 11:41:50;;;;;;;;;;;23.00;47.40;;;;;;5132927;27;19934;-58
2021/12/31 11:44:17;;;;;;;;;;;23.00;47.40;;;;;;5138060;27;20291;-59
2021/12/31 11:46:47;;;;;;;;;;;23.00;48.00;;;;;;5137615;27;19923;-54
2021/12/31 11:49:26;;;;;;;;;;;23.00;47.40;;;;;;5137832;27;19924;-56
2021/12/31 11:52:14;;;;;;;;;;;23.00;47.40;;;;;;5137447;27;19924;-50
2021/12/31 11:54:45;;;;;;;;;;;23.00;47.40;;;;;;5138454;27;19923;-51
2021/12/31 11:57:28;;;;;;;;;;;23.00;47.40;;;;;;5117005;27;20291;-52
2021/12/31 11:59:56;;;;;;;;;;;23.10;47.50;;;;;;5116904;28;19931;-57
2021/12/31 12:02:38;;;;;;;;;;;23.10;47.50;;;;;;5116799;28;20395;-53
2021/12/31 12:05:08;;;;;;;;;;;23.10;47.50;;;;;;5117128;28;19923;-53
2021/12/31 12:07:36;;;;;;;;;;;23.10;47.50;;;;;;5116680;28;19930;-58
2021/12/31 12:10:04;;;;;;;;;;;23.10;47.60;;;;;;5116457;28;20287;-51
2021/12/31 12:12:34;;;;;;;;;;;23.10;47.60;;;;;;5116156;28;19924;-54
2021/12/31 12:15:03;;;;;;;;;;;23.10;47.60;;;;;;5116910;28;20363;-52
2021/12/31 12:17:31;;;;;;;;;;;23.10;47.60;;;;;;5116545;28;19924;-57
2021/12/31 12:20:01;;;;;;;;;;;23.10;47.60;;;;;;5116691;28;19934;-56
2021/12/31 12:22:33;;;;;;;;;;;23.10;47.60;;;;;;5098382;28;19967;-47
2021/12/31 12:25:08;;;;;;;;;;;23.10;47.60;;;;;;5116318;28;19924;-54
2021/12/31 12:27:35;;;;;;;;;;;23.10;47.60;;;;;;5115491;27;19924;-56
2021/12/31 12:30:04;;;;;;;;;;;23.10;47.60;;;;;;5116250;28;19924;-51
2021/12/31 12:32:51;;;;;;;;;;;23.10;47.60;;;;;;5098110;28;19924;-51
2021/12/31 12:35:22;;;;;;;;;;;23.10;47.70;;;;;;5116238;28;19981;-58
2021/12/31 12:37:56;;;;;;;;;;;23.10;47.60;;;;;;5116101;28;19967;-55
2021/12/31 12:40:39;;;;;;;;;;;23.10;47.70;;;;;;5115582;28;19970;-49
2021/12/31 12:43:08;;;;;;;;;;;23.10;47.70;;;;;;5116062;28;19924;-52
2021/12/31 12:45:40;;;;;;;;;;;23.20;47.70;;;;;;5116301;28;20030;-48
2021/12/31 12:48:08;;;;;;;;;;;23.20;47.70;;;;;;5116201;28;20343;-53
2021/12/31 12:50:36;;;;;;;;;;;23.20;47.80;;;;;;5116028;28;19924;-50
2021/12/31 12:53:03;;;;;;;;;;;23.20;47.80;;;;;;5115656;28;20022;-56
2021/12/31 12:55:30;;;;;;;;;;;23.20;47.80;;;;;;5115244;28;20397;-53
2021/12/31 12:57:59;;;;;;;;;;;23.20;47.80;;;;;;5115384;27;20299;-58
2021/12/31 13:00:38;;;;;;;;;;;23.20;47.80;;;;;;5115936;28;19946;-49
2021/12/31 13:03:07;;;;;;;;;;;23.20;47.80;;;;;;5115601;28;19924;-52
2021/12/31 13:05:35;;;;;;;;;;;23.20;47.90;;;;;;5115815;28;19968;-49
2021/12/31 13:08:03;;;;;;;;;;;23.20;47.90;;;;;;5115736;28;19923;-52
2021/12/31 13:10:32;;;;;;;;;;;23.20;47.90;;;;;;5115493;28;19924;-53
2021/12/31 13:13:00;;;;;;;;;;;23.20;47.90;;;;;;5096176;28;20007;-47
2021/12/31 13:15:29;;;;;;;;;;;23.20;47.80;;;;;;5115407;28;19930;-54
2021/12/31 13:18:04;;;;;;;;;;;23.20;47.80;;;;;;5115361;28;19923;-50
2021/12/31 13:20:33;;;;;;;;;;;23.20;47.80;;;;;;5115164;28;19963;-54
2021/12/31 13:23:01;;;;;;;;;;;23.20;47.80;;;;;;5115082;28;19924;-48
2021/12/31 13:25:41;;;;;;;;;;;23.20;47.90;;;;;;5115506;28;19924;-51
2021/12/31 13:28:12;;;;;;;;;;;23.20;47.90;;;;;;5113883;28;20368;-51
2021/12/31 13:30:52;;;;;;;;;;;23.20;47.90;;;;;;5115151;28;19935;-49
2021/12/31 13:33:21;;;;;;;;;;;23.20;47.90;;;;;;5115033;28;20387;-50
2021/12/31 13:36:07;;;;;;;;;;;23.20;47.90;;;;;;5115306;28;20019;-53
2021/12/31 13:38:52;;;;;;;;;;;23.30;47.90;;;;;;5114976;28;20023;-52
2021/12/31 13:41:21;;;;;;;;;;;23.30;47.90;;;;;;5113713;28;19938;-51
2021/12/31 13:43:55;;;;;;;;;;;23.30;47.90;;;;;;5114862;28;19931;-49
2021/12/31 13:46:36;;;;;;;;;;;23.20;47.90;;;;;;5114390;28;19923;-49
2021/12/31 13:49:15;;;;;;;;;;;23.20;47.90;;;;;;5114658;28;20376;-48
2021/12/31 13:51:43;;;;;;;;;;;23.30;48.00;;;;;;5114736;28;20379;-53
2021/12/31 13:54:17;;;;;;;;;;;23.30;48.00;;;;;;5114945;28;19924;-55
2021/12/31 13:56:48;;;;;;;;;;;23.30;48.00;;;;;;5113374;28;19931;-46
2021/12/31 13:59:21;;;;;;;;;;;23.30;48.00;;;;;;5114614;28;19931;-50
2021/12/31 14:02:04;;;;;;;;;;;23.30;48.00;;;;;;5114831;28;19923;-53
2021/12/31 14:04:33;;;;;;;;;;;23.30;48.00;;;;;;5114536;28;19930;-56
2021/12/31 14:07:16;;;;;;;;;;;23.30;48.00;;;;;;5114698;28;19973;-50
2021/12/31 14:09:44;;;;;;;;;;;23.30;48.10;;;;;;5114810;28;19930;-55
2021/12/31 14:12:12;;;;;;;;;;;23.30;48.10;;;;;;5113561;28;20267;-48
2021/12/31 14:14:42;;;;;;;;;;;23.30;48.10;;;;;;5114398;28;19928;-57
2021/12/31 14:17:12;;;;;;;;;;;23.30;48.10;;;;;;5115270;28;19924;-51
2021/12/31 14:19:40;;;;;;;;;;;23.20;48.00;;;;;;5096162;28;19935;-56
2021/12/31 14:22:08;;;;;;;;;;;23.30;48.10;;;;;;5114086;28;19924;-57
2021/12/31 14:24:35;;;;;;;;;;;23.30;48.10;;;;;;5114096;28;19927;-50
2021/12/31 14:27:06;;;;;;;;;;;23.20;48.00;;;;;;5112170;28;20295;-51
2021/12/31 14:29:34;;;;;;;;;;;23.30;48.10;;;;;;5114208;28;19930;-55
2021/12/31 14:32:02;;;;;;;;;;;23.20;48.10;;;;;;5114176;28;19924;-57